Time;durP1;ratioP1;P1;durP2;ratioP2;P2;SDS_P1;SDS_P2;PMS_P1;PMS_P2;Temp;Humidity;BMP_temperature;BMP_pressure;BME280_temperature;BME280_humidity;BME280_pressure;Samples;Min_cycle;Max_cycle;Signal;HPM_P1;HPM_P2
2023/01/31 00:01:26;;;;;;;22.77;2.70;;;;;;;-145.18;100.00;60484.78;5020137;28;20073;-68
2023/01/31 00:03:54;;;;;;;28.03;3.67;;;;;;;-145.18;100.00;60484.78;5016771;28;20096;-68
2023/01/31 00:06:31;;;;;;;17.43;2.73;;;;;;;-145.18;100.00;60484.78;5021990;28;20033;-68
2023/01/31 00:08:58;;;;;;;20.80;2.50;;;;;;;-145.18;100.00;60484.78;5023471;28;20072;-68
2023/01/31 00:11:26;;;;;;;22.50;3.37;;;;;;;-145.18;100.00;60484.78;5026617;28;20087;-69
2023/01/31 00:13:52;;;;;;;25.77;4.47;;;;;;;-145.18;0.00;60484.78;5015209;28;20030;-69
2023/01/31 00:16:18;;;;;;;12.20;2.23;;;;;;;-145.18;0.00;60484.78;5032755;28;20025;-69
2023/01/31 00:18:44;;;;;;;27.03;2.97;;;;;;;-145.18;100.00;60484.78;5018911;28;20051;-69
2023/01/31 00:21:12;;;;;;;17.73;2.57;;;;;;;-145.18;100.00;60484.78;5008045;28;20052;-69
2023/01/31 00:23:39;;;;;;;22.40;2.57;;;;;;;-145.18;100.00;60484.78;5017967;28;20029;-70
2023/01/31 00:26:11;;;;;;;20.87;2.90;;;;;;;-145.18;100.00;60484.78;5020257;28;20018;-69
2023/01/31 00:28:37;;;;;;;22.13;3.03;;;;;;;-145.18;100.00;60484.78;5018487;28;20025;-69
2023/01/31 00:31:03;;;;;;;20.70;3.57;;;;;;;-145.18;100.00;60484.78;5020281;28;20068;-69
2023/01/31 00:33:28;;;;;;;22.33;2.70;;;;;;;-145.18;100.00;60484.78;5024062;28;20053;-68
2023/01/31 00:35:53;;;;;;;19.53;2.60;;;;;;;-145.18;100.00;60484.78;5021810;28;20079;-69
2023/01/31 00:38:19;;;;;;;18.20;2.77;;;;;;;-145.18;100.00;60484.78;5016351;28;20116;-69
2023/01/31 00:40:52;;;;;;;14.90;2.23;;;;;;;-145.18;100.00;60484.78;5027853;28;20026;-69
2023/01/31 00:43:17;;;;;;;16.43;2.57;;;;;;;-145.18;100.00;60484.78;5022394;28;20393;-69
2023/01/31 00:45:42;;;;;;;22.57;3.37;;;;;;;-145.18;100.00;60484.78;5025214;28;20017;-69
2023/01/31 00:48:08;;;;;;;16.27;2.27;;;;;;;-145.18;34.16;60484.78;5029200;28;20104;-68
2023/01/31 00:50:33;;;;;;;20.53;3.67;;;;;;;-145.18;100.00;60484.78;5020718;28;20021;-68
2023/01/31 00:52:58;;;;;;;39.73;4.27;;;;;;;-145.18;100.00;60484.78;5017836;28;21410;-69
2023/01/31 00:55:24;;;;;;;18.67;3.00;;;;;;;-145.18;100.00;60484.78;5026515;28;20048;-69
2023/01/31 00:57:49;;;;;;;30.57;3.13;;;;;;;-145.18;100.00;60484.78;5031769;28;20025;-69
2023/01/31 01:00:15;;;;;;;22.23;3.47;;;;;;;-145.18;100.00;60484.78;5027351;28;20021;-69
2023/01/31 01:02:41;;;;;;;20.83;2.80;;;;;;;-145.18;100.00;60484.78;5025962;28;20033;-70
2023/01/31 01:05:07;;;;;;;27.97;3.13;;;;;;;-145.18;100.00;60484.78;5025959;28;20042;-71
2023/01/31 01:07:32;;;;;;;24.03;4.07;;;;;;;-145.18;0.00;60484.78;5016260;28;20032;-69
2023/01/31 01:09:57;;;;;;;32.67;2.90;;;;;;;-145.18;100.00;60484.78;5026286;28;20037;-68
2023/01/31 01:12:23;;;;;;;17.83;2.47;;;;;;;-145.18;100.00;60484.78;5030701;28;20026;-68
2023/01/31 01:14:48;;;;;;;20.93;2.97;;;;;;;-145.18;100.00;60484.78;5021676;28;20160;-69
2023/01/31 01:17:13;;;;;;;24.27;3.40;;;;;;;-145.18;100.00;60484.78;5019061;28;20037;-69
2023/01/31 01:19:39;;;;;;;18.07;2.27;;;;;;;-145.18;100.00;60484.78;5018868;28;20440;-69
2023/01/31 01:22:04;;;;;;;18.37;3.13;;;;;;;-145.18;100.00;60484.78;5023833;28;20030;-69
2023/01/31 01:24:29;;;;;;;23.20;3.33;;;;;;;-145.18;100.00;60484.78;5020861;28;20536;-68
2023/01/31 01:26:56;;;;;;;18.73;2.70;;;;;;;-145.18;100.00;60484.78;5015694;28;20390;-69
2023/01/31 01:29:21;;;;;;;17.83;3.00;;;;;;;-145.18;100.00;60484.78;5015832;28;20032;-69
2023/01/31 01:31:47;;;;;;;25.20;3.57;;;;;;;-145.18;100.00;60484.78;5025912;28;20025;-69
2023/01/31 01:34:15;;;;;;;18.83;2.57;;;;;;;-145.18;100.00;60484.78;5021869;28;20053;-69
2023/01/31 01:36:41;;;;;;;28.37;4.83;;;;;;;-145.18;100.00;60484.78;5023497;28;20033;-69
2023/01/31 01:39:09;;;;;;;26.33;3.47;;;;;;;-145.18;100.00;60484.78;5030660;28;20034;-69
2023/01/31 01:41:35;;;;;;;29.47;3.97;;;;;;;-145.18;100.00;60484.78;5016833;28;20442;-69
2023/01/31 01:44:03;;;;;;;17.73;2.93;;;;;;;-145.18;100.00;60484.78;5016728;28;20049;-68
2023/01/31 01:46:34;;;;;;;23.23;2.70;;;;;;;-145.18;100.00;60484.78;5023111;28;20026;-70
2023/01/31 01:49:04;;;;;;;22.35;2.78;;;;;;;-145.18;100.00;60484.78;5020841;28;20030;-69
2023/01/31 01:51:32;;;;;;;17.60;2.53;;;;;;;-145.18;100.00;60484.78;5034820;28;20501;-69
2023/01/31 01:54:03;;;;;;;27.80;2.70;;;;;;;-145.18;100.00;60484.78;5015124;28;20139;-69
2023/01/31 01:56:36;;;;;;;18.15;3.30;;;;;;;-145.18;100.00;60484.78;5016038;28;20470;-68
2023/01/31 01:59:08;;;;;;;19.83;3.10;;;;;;;-145.18;100.00;60484.78;5018597;28;20034;-69
2023/01/31 02:01:36;;;;;;;15.83;2.53;;;;;;;-145.18;100.00;60484.78;5023399;28;20029;-68
2023/01/31 02:04:04;;;;;;;26.93;2.80;;;;;;;-145.18;100.00;60484.78;5042712;23;20431;-72
2023/01/31 02:06:30;;;;;;;24.30;2.70;;;;;;;-145.18;100.00;60484.78;5038084;28;20064;-71
2023/01/31 02:08:56;;;;;;;25.70;2.80;;;;;;;-145.18;100.00;60484.78;5043394;28;20627;-71
2023/01/31 02:11:30;;;;;;;25.37;3.07;;;;;;;-145.18;100.00;60484.78;5045227;28;20021;-72
2023/01/31 02:14:09;;;;;;;15.70;2.60;;;;;;;-145.18;100.00;60484.78;5042265;28;20018;-71
2023/01/31 02:16:35;;;;;;;14.87;2.77;;;;;;;-145.18;100.00;60484.78;5035532;28;20033;-72
2023/01/31 02:19:02;;;;;;;18.50;2.70;;;;;;;-145.18;100.00;60484.78;5019935;28;20380;-71
2023/01/31 02:21:46;;;;;;;15.30;2.90;;;;;;;-145.18;100.00;60484.78;5039250;28;20069;-71
2023/01/31 02:24:20;;;;;;;24.93;2.33;;;;;;;-145.18;0.00;60484.78;5040808;28;20476;-70
2023/01/31 02:26:48;;;;;;;16.60;2.33;;;;;;;-145.18;100.00;60484.78;5037716;28;20365;-70
2023/01/31 02:29:58;;;;;;;17.63;2.17;;;;;;;-145.18;100.00;60484.78;5042997;28;20053;-71
2023/01/31 02:32:49;;;;;;;46.60;3.40;;;;;;;-145.18;100.00;60484.78;4956145;28;20041;-70
2023/01/31 02:35:20;;;;;;;21.27;2.73;;;;;;;-145.18;100.00;60484.78;4964784;28;20035;-70
2023/01/31 02:37:56;;;;;;;24.00;2.43;;;;;;;-145.18;100.00;60484.78;4957327;28;20077;-70
2023/01/31 02:40:30;;;;;;;21.70;3.17;;;;;;;-145.18;100.00;60484.78;4970489;28;20041;-70
2023/01/31 02:43:18;;;;;;;22.73;2.57;;;;;;;-145.18;100.00;60484.78;4961736;28;20047;-70
2023/01/31 02:45:46;;;;;;;13.13;2.60;;;;;;;-145.18;100.00;60484.78;4955710;28;20041;-71
2023/01/31 02:48:36;;;;;;;14.27;2.10;;;;;;;-145.18;100.00;60484.78;4957932;28;20058;-71
2023/01/31 02:51:13;;;;;;;23.07;2.90;;;;;;;-145.18;100.00;60484.78;4956258;28;20159;-70
2023/01/31 02:53:52;;;;;;;20.97;2.57;;;;;;;-145.18;100.00;60484.78;4971776;28;20026;-71
2023/01/31 02:56:23;;;;;;;28.40;2.67;;;;;;;-145.18;100.00;60484.78;4958654;28;20039;-70
2023/01/31 02:59:20;;;;;;;21.87;2.70;;;;;;;-145.18;100.00;60484.78;4952751;28;20518;-71
2023/01/31 03:01:49;;;;;;;20.13;2.50;;;;;;;-145.18;100.00;60484.78;4959268;28;20196;-71
2023/01/31 03:04:15;;;;;;;16.83;2.00;;;;;;;-145.18;100.00;60484.78;4949990;28;20077;-71
2023/01/31 03:07:00;;;;;;;16.60;2.70;;;;;;;-145.18;100.00;60484.78;4936922;29;20034;-70
2023/01/31 03:09:35;;;;;;;20.27;2.90;;;;;;;-145.18;100.00;60484.78;5010205;28;20030;-71
2023/01/31 03:12:18;;;;;;;12.63;1.80;;;;;;;-145.18;100.00;60484.78;5015084;28;20432;-70
2023/01/31 03:14:56;;;;;;;15.20;1.97;;;;;;;-145.18;100.00;60484.78;5028360;28;20041;-71
2023/01/31 03:17:33;;;;;;;24.27;2.20;;;;;;;-145.18;100.00;60484.78;5016803;28;20448;-71
2023/01/31 03:20:01;;;;;;;23.33;2.10;;;;;;;-145.18;100.00;60484.78;5015599;28;20107;-70
2023/01/31 03:22:31;;;;;;;21.33;2.60;;;;;;;-145.18;100.00;60484.78;5017589;28;20042;-70
2023/01/31 03:24:58;;;;;;;22.33;2.57;;;;;;;-145.18;100.00;60484.78;5015406;28;20030;-71
2023/01/31 03:27:23;;;;;;;23.23;2.50;;;;;;;-145.18;100.00;60484.78;5017927;28;20026;-70
2023/01/31 03:29:52;;;;;;;13.33;1.97;;;;;;;-145.18;100.00;60484.78;5018765;28;20492;-71
2023/01/31 03:32:29;;;;;;;21.33;2.80;;;;;;;-145.18;100.00;60484.78;5018428;28;20390;-71
2023/01/31 03:34:55;;;;;;;18.00;3.03;;;;;;;-145.18;100.00;60484.78;5015633;28;20373;-71
2023/01/31 03:37:38;;;;;;;15.33;2.50;;;;;;;-145.18;100.00;60484.78;5012189;28;20026;-71
2023/01/31 03:40:07;;;;;;;21.57;2.83;;;;;;;-145.18;100.00;60484.78;5016947;28;20018;-70
2023/01/31 03:42:47;;;;;;;15.77;2.83;;;;;;;-145.18;100.00;60484.78;5018676;28;20028;-71
2023/01/31 03:45:40;;;;;;;17.40;2.00;;;;;;;-145.18;100.00;60484.78;5017286;28;20580;-71
2023/01/31 03:48:13;;;;;;;18.33;2.20;;;;;;;-145.18;100.00;60484.78;5016657;28;20042;-71
2023/01/31 03:50:51;;;;;;;18.10;2.53;;;;;;;-145.18;100.00;60484.78;5021673;28;20052;-70
2023/01/31 03:53:32;;;;;;;20.10;2.83;;;;;;;-145.18;100.00;60484.78;5013573;28;20109;-71
2023/01/31 03:56:06;;;;;;;18.07;3.37;;;;;;;-145.18;100.00;60484.78;5017963;28;20385;-70
2023/01/31 03:58:37;;;;;;;20.10;1.97;;;;;;;-145.18;100.00;60484.78;5019266;28;20083;-70
2023/01/31 04:01:07;;;;;;;23.40;3.03;;;;;;;-145.18;100.00;60484.78;5024448;28;20056;-70
2023/01/31 04:04:03;;;;;;;26.90;3.57;;;;;;;-145.18;100.00;60484.78;5014994;28;20025;-70
2023/01/31 04:06:28;;;;;;;16.33;2.50;;;;;;;-145.18;100.00;60484.78;5025706;28;20061;-71
2023/01/31 04:08:54;;;;;;;19.73;3.10;;;;;;;-145.18;100.00;60484.78;5015454;28;20018;-70
2023/01/31 04:11:23;;;;;;;21.33;3.97;;;;;;;-145.18;100.00;60484.78;5018040;28;20040;-69
2023/01/31 04:13:48;;;;;;;18.07;2.30;;;;;;;-145.18;100.00;60484.78;5014598;28;20551;-70
2023/01/31 04:16:14;;;;;;;15.07;2.03;;;;;;;-145.18;100.00;60484.78;5026267;28;20017;-70
2023/01/31 04:18:40;;;;;;;14.17;2.20;;;;;;;-145.18;100.00;60484.78;5023522;28;20381;-70
2023/01/31 04:21:05;;;;;;;15.40;2.20;;;;;;;-145.18;100.00;60484.78;5019008;28;20064;-70
2023/01/31 04:23:30;;;;;;;16.30;2.33;;;;;;;-145.18;100.00;60484.78;5022284;28;20018;-71
2023/01/31 04:25:56;;;;;;;24.03;3.17;;;;;;;-145.18;100.00;60484.78;5015847;28;20835;-70
2023/01/31 04:28:21;;;;;;;18.43;2.67;;;;;;;-145.18;100.00;60484.78;5015757;28;20029;-69
2023/01/31 04:30:54;;;;;;;15.53;2.33;;;;;;;-145.18;100.00;60484.78;5023058;28;20029;-71
2023/01/31 04:33:20;;;;;;;16.07;2.30;;;;;;;-145.18;100.00;60484.78;5015999;28;20525;-70
2023/01/31 04:35:45;;;;;;;20.27;2.70;;;;;;;-145.18;100.00;60484.78;5022686;28;20508;-70
2023/01/31 04:38:11;;;;;;;18.50;2.53;;;;;;;-145.18;100.00;60484.78;5020154;28;20026;-70
2023/01/31 04:40:36;;;;;;;30.70;2.90;;;;;;;-145.18;100.00;60484.78;5024956;28;20032;-70
2023/01/31 04:43:02;;;;;;;19.77;2.50;;;;;;;-145.18;100.00;60484.78;5014943;28;20397;-70
2023/01/31 04:45:27;;;;;;;10.17;1.90;;;;;;;-145.18;100.00;60484.78;5018031;28;20065;-69
2023/01/31 04:47:52;;;;;;;11.97;2.20;;;;;;;-145.18;100.00;60484.78;5020100;28;20370;-69
2023/01/31 04:50:18;;;;;;;21.43;2.70;;;;;;;-145.18;100.00;60484.78;5020275;28;20021;-71
2023/01/31 04:52:43;;;;;;;17.17;2.53;;;;;;;-145.18;100.00;60484.78;5006491;28;20667;-70
2023/01/31 04:55:09;;;;;;;20.13;2.93;;;;;;;-145.18;100.00;60484.78;5026627;28;20397;-71
2023/01/31 04:57:34;;;;;;;19.33;3.07;;;;;;;-145.18;100.00;60484.78;5017970;28;20378;-70
2023/01/31 04:59:59;;;;;;;14.87;2.43;;;;;;;-145.18;100.00;60484.78;5021263;28;20026;-70
2023/01/31 05:02:25;;;;;;;14.17;2.50;;;;;;;-145.18;100.00;60484.78;5018874;28;20042;-70
2023/01/31 05:04:50;;;;;;;21.10;2.53;;;;;;;-145.18;100.00;60484.78;5018762;28;20088;-71
2023/01/31 05:07:16;;;;;;;20.73;3.87;;;;;;;-145.18;100.00;60484.78;5021425;28;20111;-71
2023/01/31 05:09:42;;;;;;;15.33;3.17;;;;;;;-145.18;100.00;60484.78;5027113;28;20068;-71
2023/01/31 05:12:08;;;;;;;20.13;2.73;;;;;;;-145.18;100.00;60484.78;5020157;28;20036;-70
2023/01/31 05:14:33;;;;;;;22.07;3.17;;;;;;;-145.18;100.00;60484.78;5024173;28;20025;-70
2023/01/31 05:16:59;;;;;;;17.10;2.60;;;;;;;-145.18;100.00;60484.78;5025564;28;20033;-71
2023/01/31 05:19:24;;;;;;;18.30;2.50;;;;;;;-145.18;100.00;60484.78;5018765;28;20017;-70
2023/01/31 05:21:58;;;;;;;20.43;2.50;;;;;;;-145.18;100.00;60484.78;5018027;28;20029;-70
2023/01/31 05:24:26;;;;;;;13.63;2.40;;;;;;;-145.18;100.00;60484.78;5017637;28;20040;-71
2023/01/31 05:26:55;;;;;;;18.23;3.20;;;;;;;-145.18;100.00;60484.78;5020257;28;20184;-70
2023/01/31 05:29:20;;;;;;;18.23;2.80;;;;;;;-145.18;100.00;60484.78;5000794;28;20108;-70
2023/01/31 05:31:50;;;;;;;18.93;2.97;;;;;;;-145.18;100.00;60484.78;5015292;28;20125;-71
2023/01/31 05:34:15;;;;;;;16.37;2.97;;;;;;;-145.18;100.00;60484.78;5022708;28;20687;-70
2023/01/31 05:36:41;;;;;;;14.37;2.27;;;;;;;-145.18;100.00;60484.78;5016270;28;20028;-70
2023/01/31 05:39:07;;;;;;;15.27;2.67;;;;;;;-145.18;100.00;60484.78;5023387;28;20057;-70
2023/01/31 05:41:32;;;;;;;24.93;4.30;;;;;;;-145.18;100.00;60484.78;5023221;28;20151;-70
2023/01/31 05:43:58;;;;;;;17.67;2.77;;;;;;;-145.18;100.00;60484.78;5028235;28;20048;-70
2023/01/31 05:46:23;;;;;;;14.30;2.53;;;;;;;-145.18;100.00;60484.78;5031067;28;20022;-70
2023/01/31 05:48:48;;;;;;;22.03;2.60;;;;;;;-145.18;100.00;60484.78;5029543;28;20022;-70
2023/01/31 05:51:14;;;;;;;16.57;2.60;;;;;;;-145.18;100.00;60484.78;5019290;28;20062;-69
2023/01/31 05:53:39;;;;;;;16.17;3.00;;;;;;;-145.18;100.00;60484.78;5028364;28;20556;-70
2023/01/31 05:56:05;;;;;;;23.77;2.90;;;;;;;-145.18;100.00;60484.78;5010489;28;20054;-70
2023/01/31 05:58:30;;;;;;;13.23;2.37;;;;;;;-145.18;100.00;60484.78;5019887;28;20021;-71
2023/01/31 06:00:56;;;;;;;18.53;2.87;;;;;;;-145.18;100.00;60484.78;5023132;28;20033;-69
2023/01/31 06:03:21;;;;;;;16.80;2.70;;;;;;;-145.18;100.00;60484.78;5024029;28;20115;-69
2023/01/31 06:05:46;;;;;;;17.80;3.20;;;;;;;-145.18;100.00;60484.78;5020222;28;20037;-68
2023/01/31 06:08:12;;;;;;;18.67;2.40;;;;;;;-145.18;100.00;60484.78;5018803;28;20111;-70
2023/01/31 06:10:38;;;;;;;13.87;3.10;;;;;;;-145.18;100.00;60484.78;5022669;28;20043;-69
2023/01/31 06:13:06;;;;;;;17.67;3.27;;;;;;;-145.18;100.00;60484.78;5015408;28;20401;-70
2023/01/31 06:15:31;;;;;;;12.23;2.83;;;;;;;-145.18;100.00;60484.78;5016419;28;20568;-70
2023/01/31 06:17:57;;;;;;;8.77;2.20;;;;;;;-145.18;100.00;60484.78;5007791;28;20116;-69
2023/01/31 06:20:22;;;;;;;18.27;3.17;;;;;;;-145.18;100.00;60484.78;5026171;28;20104;-70
2023/01/31 06:22:48;;;;;;;24.93;3.40;;;;;;;-145.18;100.00;60484.78;5020120;28;20400;-69
2023/01/31 06:25:13;;;;;;;17.60;3.07;;;;;;;-145.18;100.00;60484.78;5018170;28;20037;-69
2023/01/31 06:27:38;;;;;;;15.60;2.70;;;;;;;-145.18;100.00;60484.78;5021048;28;20029;-71
2023/01/31 06:30:04;;;;;;;21.40;4.00;;;;;;;-145.18;100.00;60484.78;5027571;28;20018;-69
2023/01/31 06:32:31;;;;;;;18.07;2.90;;;;;;;-145.18;100.00;60484.78;5016160;28;20025;-69
2023/01/31 06:34:56;;;;;;;27.40;5.13;;;;;;;-145.18;100.00;60484.78;4997580;28;20032;-70
2023/01/31 06:37:21;;;;;;;21.23;3.97;;;;;;;-145.18;100.00;60484.78;5019670;28;20018;-70
2023/01/31 06:39:47;;;;;;;21.50;3.23;;;;;;;-145.18;100.00;60484.78;5014237;28;20469;-68
2023/01/31 06:42:12;;;;;;;20.13;3.47;;;;;;;-145.18;100.00;60484.78;5013502;28;20466;-70
2023/01/31 06:44:38;;;;;;;18.40;3.23;;;;;;;-145.18;100.00;60484.78;5022503;28;20441;-70
2023/01/31 06:47:03;;;;;;;15.70;3.50;;;;;;;-145.18;100.00;60484.78;5023657;28;20039;-69
2023/01/31 06:49:29;;;;;;;21.07;4.43;;;;;;;-145.18;100.00;60484.78;5023813;28;20021;-70
2023/01/31 06:51:54;;;;;;;13.77;3.60;;;;;;;-145.18;100.00;60484.78;5019754;28;20118;-70
2023/01/31 06:54:20;;;;;;;15.30;4.10;;;;;;;-145.18;100.00;60484.78;5023691;28;20029;-68
2023/01/31 06:56:45;;;;;;;26.17;5.33;;;;;;;-145.18;100.00;60484.78;5021238;28;20019;-69
2023/01/31 06:59:10;;;;;;;20.53;3.37;;;;;;;-145.18;100.00;60484.78;5028152;28;20424;-69
2023/01/31 07:01:36;;;;;;;19.23;4.30;;;;;;;-145.18;100.00;60484.78;5015610;28;20053;-70
2023/01/31 07:04:01;;;;;;;21.87;4.90;;;;;;;-145.18;100.00;60484.78;5025243;28;20029;-70
2023/01/31 07:06:27;;;;;;;16.37;3.77;;;;;;;-145.18;100.00;60484.78;5014318;28;20416;-70
2023/01/31 07:08:52;;;;;;;18.93;4.30;;;;;;;-145.18;100.00;60484.78;5020165;28;20021;-70
2023/01/31 07:11:18;;;;;;;23.40;4.30;;;;;;;-145.18;100.00;60484.78;5006641;28;20028;-70
2023/01/31 07:13:46;;;;;;;26.10;5.60;;;;;;;-145.18;100.00;60484.78;4999865;28;20033;-70
2023/01/31 07:16:12;;;;;;;20.30;4.90;;;;;;;-145.18;100.00;60484.78;5012204;28;20022;-70
2023/01/31 07:18:38;;;;;;;24.27;5.43;;;;;;;-145.18;100.00;60484.78;5024214;28;20412;-71
2023/01/31 07:21:03;;;;;;;16.77;4.43;;;;;;;-145.18;100.00;60484.78;5024293;28;20040;-69
2023/01/31 07:23:29;;;;;;;16.07;4.73;;;;;;;-145.18;100.00;60484.78;5020277;28;20040;-71
2023/01/31 07:25:54;;;;;;;28.83;5.80;;;;;;;-145.18;100.00;60484.78;5008694;28;20021;-69
2023/01/31 07:28:19;;;;;;;19.40;5.97;;;;;;;-145.18;100.00;60484.78;5024401;28;20022;-70
2023/01/31 07:30:46;;;;;;;15.13;4.73;;;;;;;-145.18;100.00;60484.78;5024240;28;20017;-70
2023/01/31 07:33:12;;;;;;;20.50;5.67;;;;;;;-145.18;100.00;60484.78;5026680;28;20389;-71
2023/01/31 07:35:37;;;;;;;25.80;5.67;;;;;;;-145.18;100.00;60484.78;5030218;28;20032;-70
2023/01/31 07:38:02;;;;;;;30.97;6.40;;;;;;;-145.18;100.00;60484.78;5028863;28;20036;-70
2023/01/31 07:40:28;;;;;;;17.87;5.63;;;;;;;-145.18;100.00;60484.78;5023749;28;20368;-70
2023/01/31 07:42:59;;;;;;;23.90;6.37;;;;;;;-145.18;100.00;60484.78;5018920;28;20385;-71
2023/01/31 07:45:25;;;;;;;23.20;6.13;;;;;;;-145.18;100.00;60484.78;5018301;28;20037;-70
2023/01/31 07:47:51;;;;;;;26.20;6.53;;;;;;;-145.18;100.00;60484.78;5017281;28;20111;-70
2023/01/31 07:50:17;;;;;;;20.77;6.17;;;;;;;-145.18;100.00;60484.78;5019846;28;20461;-70
2023/01/31 07:52:43;;;;;;;25.23;7.27;;;;;;;-145.18;100.00;60484.78;5011377;28;20025;-70
2023/01/31 07:55:08;;;;;;;24.20;7.67;;;;;;;-145.18;100.00;60484.78;5015939;28;20026;-70
2023/01/31 07:57:34;;;;;;;23.10;6.80;;;;;;;-145.18;100.00;60484.78;5029725;28;20099;-70
2023/01/31 08:00:00;;;;;;;13.33;5.23;;;;;;;-145.18;100.00;60484.78;5003844;28;20022;-69
2023/01/31 08:05:10;;;;;;;21.10;6.63;;;;;;;-145.18;100.00;60484.78;5016810;28;20500;-70
2023/01/31 08:07:36;;;;;;;18.27;7.03;;;;;;;-145.18;100.00;60484.78;5015415;28;20025;-70
2023/01/31 08:10:01;;;;;;;29.60;9.17;;;;;;;-145.18;100.00;60484.78;5013584;28;20101;-69
2023/01/31 08:12:26;;;;;;;27.33;8.30;;;;;;;-145.18;100.00;60484.78;5015423;28;20018;-70
2023/01/31 08:14:52;;;;;;;26.07;8.37;;;;;;;-145.18;100.00;60484.78;5028667;28;20456;-69
2023/01/31 08:17:17;;;;;;;24.47;7.83;;;;;;;-145.18;100.00;60484.78;5014184;28;20033;-70
2023/01/31 08:19:43;;;;;;;21.13;7.27;;;;;;;-145.18;100.00;60484.78;5015573;28;20018;-69
2023/01/31 08:22:08;;;;;;;30.57;9.50;;;;;;;-145.18;100.00;60484.78;5029774;28;20132;-71
2023/01/31 08:24:33;;;;;;;31.87;9.70;;;;;;;-145.18;100.00;60484.78;5029473;28;20049;-69
2023/01/31 08:26:59;;;;;;;26.47;7.73;;;;;;;-145.18;100.00;60484.78;5029282;28;20084;-70
2023/01/31 08:29:26;;;;;;;24.87;9.30;;;;;;;-145.18;100.00;60484.78;5016587;28;20026;-70
2023/01/31 08:31:52;;;;;;;28.20;8.63;;;;;;;-145.18;100.00;60484.78;5005329;28;20390;-70
2023/01/31 08:34:17;;;;;;;28.20;8.73;;;;;;;-145.18;100.00;60484.78;5027750;28;20022;-70
2023/01/31 08:36:44;;;;;;;25.10;10.43;;;;;;;-145.18;100.00;60484.78;5022457;28;20028;-70
2023/01/31 08:39:09;;;;;;;20.10;7.17;;;;;;;-145.18;100.00;60484.78;5033274;28;20033;-70
2023/01/31 08:41:36;;;;;;;29.10;10.90;;;;;;;-145.18;100.00;60484.78;5033498;28;20029;-70
2023/01/31 08:44:03;;;;;;;20.27;6.90;;;;;;;-145.18;100.00;60484.78;5021597;28;20488;-71
2023/01/31 08:46:35;;;;;;;37.07;11.73;;;;;;;-145.18;100.00;60484.78;5030194;28;20018;-70
2023/01/31 08:49:01;;;;;;;;;;;;;;;-145.18;100.00;60484.78;5031072;28;20101;-71
2023/01/31 08:51:27;;;;;;;27.50;10.30;;;;;;;-145.18;100.00;60484.78;5014955;28;19920;-71
2023/01/31 08:53:53;;;;;;;36.93;12.53;;;;;;;-145.18;100.00;60484.78;5029936;28;20544;-72
2023/01/31 08:56:20;;;;;;;25.33;9.87;;;;;;;-145.18;100.00;60484.78;5020078;28;20109;-70
2023/01/31 08:58:46;;;;;;;34.17;11.40;;;;;;;-145.18;100.00;60484.78;5014269;28;20037;-70
2023/01/31 09:01:14;;;;;;;31.80;10.80;;;;;;;-145.18;100.00;60484.78;5018748;28;20030;-71
2023/01/31 09:03:40;;;;;;;20.27;8.50;;;;;;;-145.18;100.00;60484.78;5019504;28;20367;-70
2023/01/31 09:06:09;;;;;;;25.07;8.77;;;;;;;-145.18;100.00;60484.78;5014135;28;20032;-69
2023/01/31 09:08:35;;;;;;;24.90;8.50;;;;;;;-145.18;100.00;60484.78;5029627;28;20048;-70
2023/01/31 09:11:00;;;;;;;35.23;11.20;;;;;;;-145.18;100.00;60484.78;5028654;28;20115;-70
2023/01/31 09:13:27;;;;;;;19.40;7.40;;;;;;;-145.18;100.00;60484.78;5032997;28;20025;-71
2023/01/31 09:16:04;;;;;;;22.00;7.13;;;;;;;-145.18;100.00;60484.78;5028727;28;20029;-69
2023/01/31 09:18:32;;;;;;;30.57;9.70;;;;;;;-145.18;100.00;60484.78;5021105;28;20389;-70
2023/01/31 09:21:06;;;;;;;26.33;8.97;;;;;;;-145.18;100.00;60484.78;5032723;28;20492;-70
2023/01/31 09:23:32;;;;;;;23.63;6.77;;;;;;;-145.18;100.00;60484.78;5026808;28;20079;-71
2023/01/31 09:25:58;;;;;;;24.13;8.77;;;;;;;-145.18;100.00;60484.78;5015308;28;20034;-70
2023/01/31 09:28:24;;;;;;;26.07;10.33;;;;;;;-145.18;100.00;60484.78;5025926;28;20152;-70
2023/01/31 09:30:52;;;;;;;24.53;9.53;;;;;;;-145.18;100.00;60484.78;4996254;28;20025;-71
2023/01/31 09:33:18;;;;;;;23.40;8.13;;;;;;;-145.18;100.00;60484.78;4996457;28;20030;-69
2023/01/31 09:35:54;;;;;;;21.77;7.83;;;;;;;-145.18;100.00;60484.78;5014009;28;20018;-69
2023/01/31 09:38:19;;;;;;;21.73;8.53;;;;;;;-145.18;100.00;60484.78;5028658;28;20522;-70
2023/01/31 09:40:45;;;;;;;22.83;7.27;;;;;;;-145.18;100.00;60484.78;5029120;28;20052;-70
2023/01/31 09:43:11;;;;;;;26.23;9.03;;;;;;;-145.18;100.00;60484.78;5013913;28;20112;-70
2023/01/31 09:45:42;;;;;;;17.53;5.67;;;;;;;-145.18;100.00;60484.78;5018676;28;20033;-69
2023/01/31 09:48:17;;;;;;;18.83;7.65;;;;;;;-145.18;100.00;60484.78;5030771;28;20025;-71
2023/01/31 09:50:48;;;;;;;27.40;9.27;;;;;;;-145.18;100.00;60484.78;5031803;28;20021;-70
2023/01/31 09:53:23;;;;;;;25.15;9.93;;;;;;;-145.18;100.00;60484.78;5013808;28;20048;-71
2023/01/31 09:56:06;;;;;;;18.30;6.87;;;;;;;-145.18;100.00;60484.78;5015355;28;20026;-69
2023/01/31 09:58:31;;;;;;;24.20;8.80;;;;;;;-145.18;100.00;60484.78;5013972;28;20022;-70
2023/01/31 10:01:06;;;;;;;18.70;7.73;;;;;;;-145.18;100.00;60484.78;5013565;28;20038;-69
2023/01/31 10:03:46;;;;;;;23.37;8.17;;;;;;;-145.18;100.00;60484.78;5020260;28;20025;-69
2023/01/31 10:06:19;;;;;;;16.60;7.37;;;;;;;-145.18;100.00;60484.78;5021079;28;20109;-68
2023/01/31 10:09:18;;;;;;;22.30;8.50;;;;;;;-145.18;100.00;60484.78;5013013;28;20018;-69
2023/01/31 10:11:50;;;;;;;23.33;8.70;;;;;;;-145.18;100.00;60484.78;5025290;28;20025;-69
2023/01/31 10:14:34;;;;;;;20.93;9.23;;;;;;;-145.18;100.00;60484.78;5028369;28;20086;-69
2023/01/31 10:17:12;;;;;;;16.57;6.13;;;;;;;-145.18;100.00;60484.78;5015785;28;20040;-69
2023/01/31 10:20:01;;;;;;;23.77;8.50;;;;;;;-145.18;100.00;60484.78;5017171;28;20021;-71
2023/01/31 10:22:49;;;;;;;28.67;10.20;;;;;;;-145.18;100.00;60484.78;5009636;28;20063;-69
2023/01/31 10:25:26;;;;;;;21.57;9.17;;;;;;;-145.18;100.00;60484.78;5013733;28;20493;-70
2023/01/31 10:27:57;;;;;;;24.43;10.10;;;;;;;-145.18;100.00;60484.78;5031505;28;20021;-70
2023/01/31 10:30:29;;;;;;;19.27;8.02;;;;;;;-145.18;100.00;60484.78;5012809;28;20020;-68
2023/01/31 10:32:58;;;;;;;;;;;;;;;-145.18;100.00;60484.78;5019747;28;20030;-69
2023/01/31 10:35:36;;;;;;;20.70;7.70;;;;;;;-145.18;100.00;60484.78;5013019;28;19995;-69
2023/01/31 10:38:34;;;;;;;28.23;9.90;;;;;;;-145.18;100.00;60484.78;5012548;28;20116;-69
2023/01/31 10:41:16;;;;;;;17.57;7.80;;;;;;;-145.18;100.00;60484.78;5013629;28;20084;-68
2023/01/31 10:43:59;;;;;;;21.75;8.13;;;;;;;-145.18;100.00;60484.78;5012693;28;20524;-69
2023/01/31 10:46:25;;;;;;;18.40;7.33;;;;;;;-145.18;100.00;60484.78;5012709;28;20496;-70
2023/01/31 10:48:50;;;;;;;18.47;7.50;;;;;;;-145.18;100.00;60484.78;5018517;28;20017;-69
2023/01/31 10:51:48;;;;;;;15.83;7.10;;;;;;;-145.18;100.00;60484.78;5014485;28;20022;-69
2023/01/31 10:54:24;;;;;;;19.37;6.33;;;;;;;-145.18;100.00;60484.78;5008030;28;20025;-69
2023/01/31 10:56:50;;;;;;;17.77;7.50;;;;;;;-145.18;100.00;60484.78;5012143;28;20072;-69
2023/01/31 10:59:24;;;;;;;16.97;7.20;;;;;;;-145.18;100.00;60484.78;5012514;28;20018;-71
2023/01/31 11:01:50;;;;;;;24.97;8.50;;;;;;;-145.18;100.00;60484.78;5012067;28;20068;-70
2023/01/31 11:04:30;;;;;;;19.90;7.20;;;;;;;-145.18;100.00;60484.78;5018253;28;20061;-69
2023/01/31 11:06:58;;;;;;;16.00;6.80;;;;;;;-145.18;100.00;60484.78;5023519;28;20022;-69
2023/01/31 11:09:27;;;;;;;21.10;7.20;;;;;;;-145.18;100.00;60484.78;5012070;28;20029;-68
2023/01/31 11:11:59;;;;;;;15.20;6.33;;;;;;;-145.18;100.00;60484.78;5012215;28;20501;-68
2023/01/31 11:14:25;;;;;;;23.15;8.80;;;;;;;-145.18;100.00;60484.78;5011872;28;20022;-70